Time;durP1;ratioP1;P1;durP2;ratioP2;P2;SDS_P1;SDS_P2;PMS_P1;PMS_P2;Temp;Humidity;BMP_temperature;BMP_pressure;BME280_temperature;BME280_humidity;BME280_pressure;Samples;Min_cycle;Max_cycle;Signal;HPM_P1;HPM_P2
2023/07/28 00:01:32;;;;;;;52.85;23.58;;;21.80;99.90;;;;;;4953550;28;20071;-61
2023/07/28 00:03:58;;;;;;;51.33;23.90;;;24.40;99.90;;;;;;4953785;29;20039;-62
2023/07/28 00:06:23;;;;;;;49.80;23.23;;;24.40;99.90;;;;;;4952317;29;20035;-62
2023/07/28 00:08:49;;;;;;;48.35;24.52;;;21.90;99.90;;;;;;4952019;29;20047;-62
2023/07/28 00:11:15;;;;;;;46.22;24.23;;;21.70;99.90;;;;;;4952916;29;20043;-62
2023/07/28 00:13:42;;;;;;;62.67;25.85;;;24.70;99.90;;;;;;4953304;28;20408;-62
2023/07/28 00:16:09;;;;;;;55.72;23.95;;;22.00;99.90;;;;;;4953828;28;20517;-62
2023/07/28 00:18:35;;;;;;;48.95;23.27;;;24.70;99.90;;;;;;4952243;29;20142;-62
2023/07/28 00:21:00;;;;;;;53.63;24.05;;;24.20;99.90;;;;;;4952149;29;20107;-62
2023/07/28 00:23:26;;;;;;;58.53;23.65;;;22.10;99.90;;;;;;4953233;28;20097;-62
2023/07/28 00:25:51;;;;;;;53.47;23.52;;;24.70;99.90;;;;;;4951919;28;20413;-62
2023/07/28 00:28:17;;;;;;;41.88;22.55;;;23.50;99.90;;;;;;4952762;28;20035;-62
2023/07/28 00:30:43;;;;;;;45.88;22.15;;;23.10;99.90;;;;;;4952798;28;20158;-62
2023/07/28 00:33:08;;;;;;;57.03;23.50;;;24.70;99.90;;;;;;4952909;28;20035;-62
2023/07/28 00:35:34;;;;;;;57.97;23.92;;;24.50;99.90;;;;;;4952976;29;20121;-61
2023/07/28 00:38:00;;;;;;;50.83;23.38;;;21.90;99.90;;;;;;4952351;29;20043;-62
2023/07/28 00:40:25;;;;;;;41.28;23.90;;;23.20;99.90;;;;;;4952783;28;20489;-61
2023/07/28 00:42:53;;;;;;;48.83;22.52;;;21.80;99.90;;;;;;4952574;28;20469;-62
2023/07/28 00:45:19;;;;;;;45.65;22.13;;;24.80;99.90;;;;;;4951709;29;20073;-62
2023/07/28 00:47:46;;;;;;;36.65;21.92;;;21.80;99.90;;;;;;4952311;28;20043;-63
2023/07/28 00:50:12;;;;;;;49.60;22.00;;;24.10;99.90;;;;;;4946896;28;20045;-62
2023/07/28 00:52:38;;;;;;;51.45;22.02;;;24.60;99.90;;;;;;4941489;29;20039;-62
2023/07/28 00:55:06;;;;;;;51.10;22.00;;;24.70;99.90;;;;;;4947793;29;20070;-62
2023/07/28 00:57:33;;;;;;;51.45;22.33;;;24.30;99.90;;;;;;4951939;28;20043;-62
2023/07/28 00:59:59;;;;;;;40.50;22.10;;;24.70;99.90;;;;;;4952487;28;20051;-62
2023/07/28 01:02:25;;;;;;;52.38;22.85;;;24.00;99.90;;;;;;4950399;29;20434;-62
2023/07/28 01:04:51;;;;;;;47.97;22.58;;;22.70;99.90;;;;;;4952254;28;20150;-62
2023/07/28 01:07:31;;;;;;;40.03;22.42;;;24.70;99.90;;;;;;4951953;28;20115;-61
2023/07/28 01:10:16;;;;;;;39.75;22.60;;;24.40;99.90;;;;;;4950720;29;20047;-62
2023/07/28 01:12:42;;;;;;;39.30;22.13;;;22.30;99.90;;;;;;4952698;28;20405;-61
2023/07/28 01:15:08;;;;;;;40.10;22.40;;;21.80;99.90;;;;;;4952143;29;20050;-62
2023/07/28 01:17:34;;;;;;;41.33;22.60;;;24.70;99.90;;;;;;4951921;28;20090;-62
2023/07/28 01:19:59;;;;;;;40.88;23.00;;;22.10;99.90;;;;;;4951415;29;20461;-61
2023/07/28 01:22:59;;;;;;;37.83;22.60;;;23.70;99.90;;;;;;4948855;29;20075;-62
2023/07/28 01:25:54;;;;;;;40.95;22.67;;;21.80;99.90;;;;;;4940650;29;20065;-62
2023/07/28 01:28:20;;;;;;;47.08;23.08;;;24.40;99.90;;;;;;4944616;29;20446;-62
2023/07/28 01:30:46;;;;;;;48.28;23.55;;;22.20;99.90;;;;;;4951425;28;20054;-62
2023/07/28 01:33:12;;;;;;;41.38;23.67;;;23.70;99.90;;;;;;4951839;29;20043;-62
2023/07/28 01:35:40;;;;;;;34.30;23.38;;;22.70;99.90;;;;;;4950568;29;20054;-61
2023/07/28 01:38:06;;;;;;;39.92;23.35;;;24.60;99.90;;;;;;4950626;28;20050;-61
2023/07/28 01:40:31;;;;;;;42.47;24.10;;;21.80;99.90;;;;;;4951964;29;20051;-62
2023/07/28 01:42:57;;;;;;;40.90;23.30;;;24.60;99.90;;;;;;4952069;28;20408;-61
2023/07/28 01:45:23;;;;;;;48.30;22.00;;;22.00;99.90;;;;;;4951671;29;20061;-62
2023/07/28 01:47:48;;;;;;;37.38;23.33;;;24.80;99.90;;;;;;4951632;29;20074;-62
2023/07/28 01:50:14;;;;;;;33.55;23.17;;;24.60;99.90;;;;;;4951742;29;20040;-62
2023/07/28 01:52:39;;;;;;;37.22;22.85;;;24.60;99.90;;;;;;4951909;29;20049;-62
2023/07/28 01:55:06;;;;;;;37.25;22.60;;;24.50;99.90;;;;;;4951217;29;20043;-61
2023/07/28 01:57:35;;;;;;;32.88;23.35;;;24.50;99.90;;;;;;4951850;29;20039;-62
2023/07/28 02:00:03;;;;;;;33.92;23.55;;;24.00;99.90;;;;;;4950145;29;20500;-62
2023/07/28 02:02:28;;;;;;;33.70;22.52;;;23.20;99.90;;;;;;4951036;28;20125;-62
2023/07/28 02:04:54;;;;;;;36.08;23.52;;;23.90;99.90;;;;;;4951124;29;20043;-61
2023/07/28 02:07:19;;;;;;;33.50;22.90;;;24.20;99.90;;;;;;4951023;29;20172;-63
2023/07/28 02:09:45;;;;;;;36.35;24.40;;;24.30;99.90;;;;;;4951374;29;20094;-62
2023/07/28 02:12:10;;;;;;;35.70;23.63;;;22.50;99.90;;;;;;4951553;29;20031;-61
2023/07/28 02:14:36;;;;;;;36.75;23.23;;;22.20;99.90;;;;;;4951869;29;20132;-62
2023/07/28 02:17:01;;;;;;;31.60;22.65;;;24.80;99.90;;;;;;4951250;28;20098;-62
2023/07/28 02:19:27;;;;;;;29.55;23.70;;;22.30;99.90;;;;;;4951323;29;20098;-62
2023/07/28 02:21:52;;;;;;;33.70;23.08;;;24.30;99.90;;;;;;4948515;29;20066;-62
2023/07/28 02:24:18;;;;;;;33.75;23.95;;;23.00;99.90;;;;;;4950318;29;20055;-62
2023/07/28 02:26:44;;;;;;;34.38;23.25;;;24.40;99.90;;;;;;4951336;29;20428;-62
2023/07/28 02:29:09;;;;;;;32.03;24.00;;;22.20;99.90;;;;;;4950737;29;20413;-62
2023/07/28 02:31:35;;;;;;;32.58;23.63;;;24.00;99.90;;;;;;4949542;29;20062;-62
2023/07/28 02:34:00;;;;;;;32.78;23.05;;;24.40;99.90;;;;;;4951250;29;20044;-62
2023/07/28 02:36:26;;;;;;;35.30;23.73;;;24.80;99.90;;;;;;4951476;29;20035;-61
2023/07/28 02:38:51;;;;;;;30.15;24.08;;;22.00;99.90;;;;;;4951112;29;20378;-62
2023/07/28 02:41:17;;;;;;;33.40;24.10;;;23.00;99.90;;;;;;4947868;29;20078;-62
2023/07/28 02:43:43;;;;;;;33.83;24.35;;;21.90;99.90;;;;;;4951653;29;20054;-62
2023/07/28 02:46:08;;;;;;;28.63;23.42;;;23.80;99.90;;;;;;4950901;29;20043;-62
2023/07/28 02:48:34;;;;;;;35.75;24.95;;;22.90;99.90;;;;;;4950953;28;20401;-62
2023/07/28 02:50:59;;;;;;;36.65;23.98;;;22.20;99.90;;;;;;4954619;29;20044;-62
2023/07/28 02:53:25;;;;;;;33.22;24.48;;;21.90;99.90;;;;;;4955224;29;20043;-62
2023/07/28 02:55:50;;;;;;;30.80;23.73;;;23.90;99.90;;;;;;4954462;29;20075;-62
2023/07/28 02:58:16;;;;;;;26.75;24.13;;;24.70;99.90;;;;;;4955145;29;20042;-62
2023/07/28 03:00:43;;;;;;;31.10;25.60;;;23.10;99.90;;;;;;4953232;29;20078;-62
2023/07/28 03:03:10;;;;;;;27.10;24.40;;;23.60;99.90;;;;;;4954586;29;20054;-61
2023/07/28 03:05:36;;;;;;;30.88;25.15;;;22.60;99.90;;;;;;4954083;28;20535;-62
2023/07/28 03:08:03;;;;;;;29.65;26.55;;;22.20;99.90;;;;;;4953388;29;20036;-62
2023/07/28 03:10:28;;;;;;;27.75;25.08;;;22.00;99.90;;;;;;4953989;28;20413;-62
2023/07/28 03:12:54;;;;;;;29.38;26.45;;;24.80;99.90;;;;;;4955188;28;20041;-62
2023/07/28 03:15:21;;;;;;;28.95;25.90;;;23.60;99.90;;;;;;4954376;28;20137;-62
2023/07/28 03:17:48;;;;;;;34.08;26.80;;;22.80;99.90;;;;;;4954017;28;20050;-62
2023/07/28 03:20:13;;;;;;;31.27;26.83;;;21.10;99.90;;;;;;4954042;28;20035;-62
2023/07/28 03:22:39;;;;;;;29.48;26.52;;;19.30;99.90;;;;;;4954654;29;20046;-62
2023/07/28 03:25:05;;;;;;;30.67;26.48;;;19.10;99.90;;;;;;4941058;29;20059;-62
2023/07/28 03:27:30;;;;;;;30.67;27.45;;;21.30;99.90;;;;;;4953266;29;20051;-61
2023/07/28 03:29:56;;;;;;;30.50;25.45;;;19.70;99.90;;;;;;4954300;28;20035;-62
2023/07/28 03:32:22;;;;;;;30.67;26.83;;;21.60;99.90;;;;;;4953130;29;20351;-62
2023/07/28 03:34:47;;;;;;;28.40;25.50;;;21.30;99.90;;;;;;4952609;29;20066;-61
2023/07/28 03:37:13;;;;;;;31.98;27.10;;;19.90;99.90;;;;;;4953602;29;20039;-62
2023/07/28 03:39:38;;;;;;;31.00;25.25;;;21.50;99.90;;;;;;4953513;29;20058;-62
2023/07/28 03:42:04;;;;;;;34.20;26.85;;;21.00;99.90;;;;;;4953990;29;20058;-62
2023/07/28 03:44:30;;;;;;;27.42;24.58;;;19.30;99.90;;;;;;4953092;29;20409;-62
2023/07/28 03:46:56;;;;;;;29.15;25.98;;;20.30;99.90;;;;;;4953103;28;20043;-62
2023/07/28 03:49:21;;;;;;;29.35;26.15;;;19.40;99.90;;;;;;4944116;29;20098;-62
2023/07/28 03:51:47;;;;;;;30.02;27.00;;;21.50;99.90;;;;;;4949375;29;20062;-62
2023/07/28 03:54:12;;;;;;;28.15;25.38;;;20.80;99.90;;;;;;4953844;29;20114;-62
2023/07/28 03:56:38;;;;;;;29.85;26.77;;;18.80;99.90;;;;;;4952733;29;20043;-62
2023/07/28 03:59:03;;;;;;;31.38;28.35;;;21.00;99.90;;;;;;4953551;28;20102;-62
2023/07/28 04:01:29;;;;;;;30.40;27.35;;;21.10;99.90;;;;;;4953437;29;20357;-62
2023/07/28 04:03:55;;;;;;;29.85;27.05;;;18.90;99.90;;;;;;4954227;29;20098;-62
2023/07/28 04:06:42;;;;;;;30.73;27.88;;;19.90;99.90;;;;;;4953068;28;20035;-62
2023/07/28 04:09:08;;;;;;;32.58;29.45;;;20.00;99.90;;;;;;4953314;28;20043;-62
2023/07/28 04:11:33;;;;;;;30.67;27.73;;;21.30;99.90;;;;;;4953069;28;20109;-62
2023/07/28 04:13:59;;;;;;;31.98;28.80;;;19.40;99.90;;;;;;4953846;29;20505;-62
2023/07/28 04:16:25;;;;;;;31.92;28.92;;;21.40;99.90;;;;;;4953569;28;20039;-62
2023/07/28 04:18:50;;;;;;;32.97;29.77;;;18.80;99.90;;;;;;4952176;29;20125;-62
2023/07/28 04:21:16;;;;;;;34.22;30.83;;;19.00;99.90;;;;;;4953016;29;20039;-62
2023/07/28 04:23:41;;;;;;;34.88;31.73;;;21.00;99.90;;;;;;4953695;29;20039;-62
2023/07/28 04:26:07;;;;;;;35.42;31.95;;;21.20;99.90;;;;;;4947507;29;20118;-62
2023/07/28 04:28:33;;;;;;;35.92;32.38;;;20.90;99.90;;;;;;4952312;29;20406;-62
2023/07/28 04:30:58;;;;;;;37.28;33.63;;;18.70;99.90;;;;;;4952498;29;20035;-62
2023/07/28 04:33:24;;;;;;;34.55;31.17;;;20.20;99.90;;;;;;4953298;29;20108;-62
2023/07/28 04:35:50;;;;;;;35.67;31.90;;;20.50;99.90;;;;;;4953110;29;20580;-62
2023/07/28 04:38:17;;;;;;;34.15;30.90;;;21.20;99.90;;;;;;4952828;29;20039;-62
2023/07/28 04:40:42;;;;;;;34.60;31.40;;;18.60;99.90;;;;;;4952712;28;20053;-62
2023/07/28 04:43:11;;;;;;;34.20;31.13;;;21.10;99.90;;;;;;4952537;29;20043;-62
2023/07/28 04:45:36;;;;;;;35.67;32.05;;;19.00;99.90;;;;;;4951182;29;20102;-62
2023/07/28 04:48:02;;;;;;;34.30;31.13;;;18.60;99.90;;;;;;4952487;29;20134;-62
2023/07/28 04:50:28;;;;;;;36.63;33.30;;;19.30;99.90;;;;;;4947425;29;20059;-62
2023/07/28 04:52:54;;;;;;;35.50;31.98;;;18.60;99.90;;;;;;4952859;29;20127;-62
2023/07/28 04:55:20;;;;;;;33.53;30.52;;;18.70;99.90;;;;;;4952285;29;20047;-62
2023/07/28 04:57:45;;;;;;;35.38;32.13;;;20.30;99.90;;;;;;4952286;29;20085;-62
2023/07/28 05:00:12;;;;;;;35.13;31.90;;;21.40;99.90;;;;;;4952250;29;20453;-62
2023/07/28 05:02:37;;;;;;;33.80;30.42;;;21.00;99.90;;;;;;4952594;28;20057;-62
2023/07/28 05:05:03;;;;;;;35.88;32.38;;;21.50;99.90;;;;;;4952406;29;20047;-62
2023/07/28 05:07:29;;;;;;;34.10;31.10;;;21.40;99.90;;;;;;4952561;28;20070;-62
2023/07/28 05:09:54;;;;;;;32.58;29.63;;;20.80;99.90;;;;;;4952025;29;20117;-62
2023/07/28 05:12:20;;;;;;;33.20;30.15;;;19.00;99.90;;;;;;4951217;28;20035;-62
2023/07/28 05:14:46;;;;;;;34.25;31.38;;;21.30;99.90;;;;;;4952449;28;20110;-62
2023/07/28 05:17:12;;;;;;;34.03;31.05;;;19.40;99.90;;;;;;4951710;28;20555;-62
2023/07/28 05:19:37;;;;;;;35.65;32.55;;;21.50;99.90;;;;;;4952229;29;20493;-62
2023/07/28 05:22:03;;;;;;;36.47;33.35;;;18.90;99.90;;;;;;4950792;28;20042;-62
2023/07/28 05:24:29;;;;;;;36.85;33.65;;;19.40;99.90;;;;;;4951342;29;20055;-62
2023/07/28 05:26:54;;;;;;;36.58;33.28;;;21.00;99.90;;;;;;4950223;29;20035;-61
2023/07/28 05:29:20;;;;;;;38.83;35.40;;;21.60;99.90;;;;;;4951195;28;20125;-62
2023/07/28 05:31:46;;;;;;;36.03;32.97;;;18.60;99.90;;;;;;4949657;29;20044;-62
2023/07/28 05:34:12;;;;;;;36.80;33.40;;;18.70;99.90;;;;;;4950433;28;20043;-62
2023/07/28 05:36:38;;;;;;;38.10;34.55;;;21.50;99.90;;;;;;4951332;29;20145;-62
2023/07/28 05:39:04;;;;;;;36.20;32.78;;;18.90;99.90;;;;;;4951998;28;20591;-62
2023/07/28 05:41:30;;;;;;;38.42;34.38;;;21.50;99.90;;;;;;4951830;29;20047;-62
2023/07/28 05:43:55;;;;;;;37.15;33.95;;;19.70;99.90;;;;;;4952248;29;20039;-62
2023/07/28 05:46:21;;;;;;;39.70;35.78;;;20.60;99.90;;;;;;4952216;29;20043;-62
2023/07/28 05:48:46;;;;;;;39.95;36.17;;;18.60;99.90;;;;;;4950183;29;20098;-66
2023/07/28 05:51:12;;;;;;;39.33;35.83;;;18.60;99.90;;;;;;4951684;29;20036;-65
2023/07/28 05:53:38;;;;;;;37.42;34.08;;;19.10;99.90;;;;;;4951780;28;20043;-66
2023/07/28 05:56:03;;;;;;;37.75;34.70;;;20.80;99.90;;;;;;4951400;29;20035;-65
2023/07/28 05:58:29;;;;;;;37.90;34.75;;;21.20;99.90;;;;;;4950171;29;20043;-66
2023/07/28 06:00:55;;;;;;;35.20;32.15;;;21.40;99.90;;;;;;4951722;29;20047;-66
2023/07/28 06:03:21;;;;;;;36.95;33.92;;;20.40;99.90;;;;;;4947912;28;20042;-65
2023/07/28 06:05:47;;;;;;;39.92;36.53;;;18.70;99.90;;;;;;4949453;29;20065;-66
2023/07/28 06:08:13;;;;;;;42.95;39.17;;;18.60;99.90;;;;;;4948078;29;20130;-66
2023/07/28 06:10:39;;;;;;;38.45;35.30;;;21.20;99.90;;;;;;4948229;28;20050;-66
2023/07/28 06:13:05;;;;;;;36.15;33.22;;;21.60;99.90;;;;;;4950764;28;20031;-66
2023/07/28 06:15:30;;;;;;;39.47;36.05;;;20.90;99.90;;;;;;4941065;28;20117;-65
2023/07/28 06:17:56;;;;;;;40.58;37.25;;;20.10;99.90;;;;;;4954751;28;20076;-66
2023/07/28 06:20:22;;;;;;;38.03;34.88;;;21.20;99.90;;;;;;4950746;29;20062;-66
2023/07/28 06:22:48;;;;;;;39.15;35.80;;;21.70;99.90;;;;;;4950805;28;20101;-66
2023/07/28 06:25:13;;;;;;;40.55;37.22;;;18.90;99.90;;;;;;4958751;28;20059;-66
2023/07/28 06:27:39;;;;;;;38.28;35.17;;;21.60;99.90;;;;;;4953252;29;20043;-65
2023/07/28 06:30:05;;;;;;;36.63;33.72;;;21.80;99.90;;;;;;4948514;28;20132;-66
2023/07/28 06:32:31;;;;;;;37.75;34.75;;;19.20;99.90;;;;;;4954405;29;20035;-66
2023/07/28 06:34:57;;;;;;;37.20;34.30;;;21.90;99.90;;;;;;4959081;28;20042;-66
2023/07/28 06:37:23;;;;;;;37.22;33.97;;;19.20;99.90;;;;;;4952788;28;20035;-66
2023/07/28 06:39:49;;;;;;;39.40;36.10;;;21.60;99.90;;;;;;4949101;28;20047;-66
2023/07/28 06:42:16;;;;;;;37.60;34.55;;;19.30;99.90;;;;;;4953395;28;20055;-66
2023/07/28 06:44:42;;;;;;;37.25;34.25;;;20.00;99.90;;;;;;4947479;28;20125;-66
2023/07/28 06:47:07;;;;;;;35.97;33.08;;;20.50;99.90;;;;;;4955904;28;20134;-66
2023/07/28 06:49:33;;;;;;;37.30;34.40;;;20.90;99.90;;;;;;4949409;28;20047;-66
2023/07/28 06:51:59;;;;;;;35.70;32.88;;;19.70;99.90;;;;;;4954810;28;20031;-66
2023/07/28 06:54:24;;;;;;;37.72;34.63;;;19.50;99.90;;;;;;4951096;28;20088;-66
2023/07/28 06:56:50;;;;;;;36.47;33.47;;;22.10;99.90;;;;;;4952305;28;20054;-66
2023/07/28 06:59:16;;;;;;;36.40;33.60;;;21.00;99.90;;;;;;4963698;28;20035;-66
2023/07/28 07:01:41;;;;;;;37.55;34.55;;;19.60;99.90;;;;;;4952253;28;20066;-66
2023/07/28 07:04:07;;;;;;;34.15;31.45;;;19.80;99.90;;;;;;4952223;28;20398;-70
2023/07/28 07:06:33;;;;;;;35.13;32.10;;;21.00;99.90;;;;;;4954272;28;20094;-68
2023/07/28 07:08:58;;;;;;;36.03;33.03;;;21.80;99.90;;;;;;4953233;28;20468;-66
2023/07/28 07:11:24;;;;;;;35.08;32.38;;;20.40;99.90;;;;;;4952763;28;20050;-65
2023/07/28 07:13:49;;;;;;;34.08;31.27;;;21.50;99.90;;;;;;4949970;28;20035;-66
2023/07/28 07:16:16;;;;;;;35.95;33.08;;;20.60;99.90;;;;;;4962771;28;20094;-67
2023/07/28 07:18:45;;;;;;;37.10;34.10;;;21.30;99.90;;;;;;4953809;28;20039;-67
2023/07/28 07:21:11;;;;;;;37.92;34.47;;;20.70;99.90;;;;;;4952680;28;20046;-67
2023/07/28 07:23:37;;;;;;;36.38;33.47;;;21.50;99.90;;;;;;4952044;28;20039;-67
2023/07/28 07:26:03;;;;;;;36.38;33.38;;;22.00;99.90;;;;;;4953546;29;20066;-67
2023/07/28 07:28:29;;;;;;;34.90;31.90;;;22.20;99.90;;;;;;4954344;28;20043;-68
2023/07/28 07:30:57;;;;;;;35.95;33.05;;;20.00;99.90;;;;;;4953208;29;20047;-67
2023/07/28 07:33:23;;;;;;;36.83;33.63;;;20.50;99.90;;;;;;4952772;28;20047;-67
2023/07/28 07:35:49;;;;;;;37.45;34.25;;;20.60;99.90;;;;;;4953651;28;20043;-67
2023/07/28 07:38:15;;;;;;;38.15;34.95;;;20.80;99.90;;;;;;4954774;28;20413;-67
2023/07/28 07:40:41;;;;;;;36.47;33.50;;;22.20;99.90;;;;;;4946022;28;20382;-66
2023/07/28 07:43:06;;;;;;;37.17;33.97;;;20.20;99.90;;;;;;4951782;28;20527;-66
2023/07/28 07:45:32;;;;;;;36.92;33.70;;;22.30;99.90;;;;;;4959706;28;20055;-66
2023/07/28 07:47:59;;;;;;;37.53;34.42;;;20.80;99.90;;;;;;4946573;28;20228;-66
2023/07/28 07:50:24;;;;;;;37.10;34.13;;;20.00;99.90;;;;;;4950769;29;20047;-66
2023/07/28 07:52:50;;;;;;;35.42;32.55;;;20.40;99.90;;;;;;4956455;28;20047;-66
2023/07/28 07:55:16;;;;;;;35.90;32.90;;;21.00;99.90;;;;;;4952864;29;20106;-66
2023/07/28 07:57:41;;;;;;;34.97;32.13;;;22.00;99.90;;;;;;4953908;28;20035;-66
2023/07/28 08:00:08;;;;;;;35.08;32.28;;;21.70;99.90;;;;;;4953414;28;20043;-66
2023/07/28 08:02:34;;;;;;;35.72;32.88;;;22.60;99.90;;;;;;4937225;29;20553;-66
2023/07/28 08:05:00;;;;;;;38.35;35.13;;;21.30;99.90;;;;;;4952845;28;20043;-65
2023/07/28 08:07:25;;;;;;;35.67;32.95;;;20.90;99.90;;;;;;4952852;29;20051;-66
2023/07/28 08:09:51;;;;;;;35.50;32.63;;;21.30;99.90;;;;;;4953664;28;20051;-66
2023/07/28 08:12:17;;;;;;;35.60;32.83;;;21.90;99.90;;;;;;4947086;28;20027;-66
2023/07/28 08:14:43;;;;;;;34.38;31.70;;;21.50;99.90;;;;;;4953397;29;20027;-66
2023/07/28 08:17:09;;;;;;;31.65;29.25;;;21.70;99.90;;;;;;4941601;28;20134;-66
2023/07/28 08:19:35;;;;;;;33.42;30.85;;;23.40;99.90;;;;;;4967557;28;20135;-66
2023/07/28 08:22:03;;;;;;;28.13;25.95;;;23.30;99.90;;;;;;4952592;29;20526;-66
2023/07/28 08:24:29;;;;;;;27.55;25.55;;;23.30;99.90;;;;;;4951973;28;20055;-66
2023/07/28 08:26:56;;;;;;;27.63;25.40;;;22.70;99.90;;;;;;4952448;28;20053;-66
2023/07/28 08:29:21;;;;;;;28.00;25.90;;;23.60;99.90;;;;;;4949440;29;20118;-66
2023/07/28 08:31:47;;;;;;;28.05;25.67;;;22.90;99.90;;;;;;4952457;28;20039;-66
2023/07/28 08:34:12;;;;;;;27.30;25.20;;;23.80;99.90;;;;;;4954192;28;20158;-66
2023/07/28 08:36:38;;;;;;;31.13;28.10;;;23.50;99.90;;;;;;4951803;28;20046;-66
2023/07/28 08:39:04;;;;;;;31.20;28.70;;;23.30;99.90;;;;;;4952696;28;20075;-66
2023/07/28 08:41:30;;;;;;;32.03;29.25;;;22.70;99.90;;;;;;4953127;28;20528;-66
2023/07/28 08:43:57;;;;;;;29.17;26.88;;;22.60;99.90;;;;;;4944926;28;20071;-66
2023/07/28 08:46:23;;;;;;;29.48;27.17;;;22.70;99.90;;;;;;4949321;28;20509;-65
2023/07/28 08:48:48;;;;;;;30.05;27.50;;;22.80;99.90;;;;;;4950136;29;20576;-65
2023/07/28 08:51:14;;;;;;;29.88;27.58;;;22.70;99.90;;;;;;4953288;28;20067;-65
2023/07/28 08:53:40;;;;;;;28.77;26.10;;;23.30;99.90;;;;;;4952860;28;20126;-71
2023/07/28 08:56:06;;;;;;;30.95;28.08;;;23.10;99.90;;;;;;4954990;28;20046;-69
2023/07/28 08:58:32;;;;;;;28.42;26.17;;;23.00;99.90;;;;;;4949495;28;20047;-70
2023/07/28 09:01:01;;;;;;;28.48;26.25;;;23.50;99.90;;;;;;4953464;28;20142;-70
2023/07/28 09:03:27;;;;;;;26.77;24.58;;;23.20;99.90;;;;;;4955255;28;20039;-65
2023/07/28 09:06:02;;;;;;;28.70;26.45;;;23.50;99.90;;;;;;4956964;28;20043;-66
2023/07/28 09:08:30;;;;;;;25.38;23.17;;;23.90;99.90;;;;;;4951612;28;20043;-66
2023/07/28 09:10:56;;;;;;;28.75;26.15;;;23.00;99.90;;;;;;4946166;28;20039;-65
2023/07/28 09:13:21;;;;;;;29.92;27.42;;;23.80;99.90;;;;;;4952221;28;20397;-65
2023/07/28 09:15:47;;;;;;;26.50;24.40;;;23.90;99.90;;;;;;4952632;28;20508;-65
2023/07/28 09:18:15;;;;;;;27.63;25.33;;;23.20;99.90;;;;;;4952241;28;20045;-65
2023/07/28 09:20:42;;;;;;;27.02;24.63;;;24.00;99.90;;;;;;4949957;28;20501;-65
2023/07/28 09:23:08;;;;;;;27.33;25.13;;;23.20;99.90;;;;;;4952635;28;20134;-65
2023/07/28 09:25:36;;;;;;;27.00;24.70;;;23.30;99.90;;;;;;4956376;28;20086;-66
2023/07/28 09:28:02;;;;;;;25.83;23.83;;;24.10;99.90;;;;;;4947692;28;20085;-65
2023/07/28 09:30:47;;;;;;;27.23;25.10;;;23.60;99.90;;;;;;4948701;29;20039;-66
2023/07/28 09:33:13;;;;;;;25.27;23.33;;;23.90;99.90;;;;;;4950576;28;20063;-66
2023/07/28 09:35:49;;;;;;;23.73;21.83;;;24.30;99.90;;;;;;4952431;28;20059;-65
2023/07/28 09:38:16;;;;;;;20.70;18.98;;;24.10;99.90;;;;;;4949656;28;20036;-66
2023/07/28 09:40:42;;;;;;;22.90;21.10;;;24.70;99.90;;;;;;4955863;28;20098;-65
2023/07/28 09:43:07;;;;;;;23.42;21.63;;;24.60;99.90;;;;;;4950631;28;20449;-65
2023/07/28 09:45:35;;;;;;;25.92;23.77;;;24.80;99.90;;;;;;4946699;28;20047;-65
2023/07/28 09:48:03;;;;;;;22.20;20.27;;;25.10;99.90;;;;;;4946725;28;20109;-65
2023/07/28 09:50:32;;;;;;;23.85;22.00;;;25.40;99.90;;;;;;4948104;28;20058;-65
2023/07/28 09:53:01;;;;;;;21.20;19.38;;;25.50;99.90;;;;;;4949573;29;20051;-66
2023/07/28 09:55:28;;;;;;;23.50;21.75;;;25.80;99.90;;;;;;4950277;28;20039;-66
2023/07/28 09:57:57;;;;;;;23.02;21.23;;;26.10;99.90;;;;;;4948126;28;20062;-65
2023/07/28 10:00:23;;;;;;;24.67;22.67;;;26.00;1.00;;;;;;4950335;29;20194;-65
2023/07/28 10:02:50;;;;;;;25.27;22.73;;;26.00;83.70;;;;;;4949643;28;20057;-65
2023/07/28 10:05:16;;;;;;;28.10;25.80;;;25.90;1.00;;;;;;4947658;29;20051;-66
2023/07/28 10:07:43;;;;;;;23.23;21.15;;;26.20;76.50;;;;;;4952810;28;20055;-65
2023/07/28 10:10:12;;;;;;;28.17;25.88;;;26.10;99.90;;;;;;4944960;28;20039;-65
2023/07/28 10:12:51;;;;;;;26.48;24.38;;;26.20;1.00;;;;;;4949045;28;20127;-66
2023/07/28 10:15:19;;;;;;;27.20;24.90;;;26.00;99.90;;;;;;4949869;28;20039;-65
2023/07/28 10:17:47;;;;;;;28.70;25.85;;;25.80;1.00;;;;;;4950308;29;20568;-65
2023/07/28 10:20:35;;;;;;;25.17;23.13;;;25.80;99.90;;;;;;4960580;28;20053;-65
2023/07/28 10:23:13;;;;;;;25.67;23.58;;;25.70;14.30;;;;;;4965242;28;20494;-65
2023/07/28 10:25:40;;;;;;;25.85;23.30;;;25.60;85.30;;;;;;4971128;28;20081;-65
2023/07/28 10:28:07;;;;;;;27.77;25.52;;;25.60;36.10;;;;;;4957732;28;20043;-65
2023/07/28 10:30:38;;;;;;;22.63;20.92;;;25.50;99.90;;;;;;4959734;28;20043;-65
2023/07/28 10:33:03;;;;;;;23.52;21.63;;;25.80;99.90;;;;;;4952102;28;20553;-65
2023/07/28 10:35:31;;;;;;;22.33;20.73;;;25.60;1.00;;;;;;4951506;28;20193;-66
2023/07/28 10:37:57;;;;;;;23.17;21.48;;;25.60;1.00;;;;;;4945979;29;20054;-65
2023/07/28 10:40:34;;;;;;;24.60;22.50;;;25.40;99.90;;;;;;4950796;28;20039;-65
2023/07/28 10:43:01;;;;;;;24.13;22.13;;;25.20;99.90;;;;;;4941528;28;20577;-65
2023/07/28 10:45:29;;;;;;;22.90;21.20;;;25.20;99.90;;;;;;4952784;28;20043;-65
2023/07/28 10:47:56;;;;;;;26.73;24.25;;;25.30;99.90;;;;;;4949657;28;20126;-65
2023/07/28 10:50:23;;;;;;;22.77;20.77;;;25.30;1.00;;;;;;4948291;28;20122;-65
2023/07/28 10:52:49;;;;;;;19.75;18.15;;;25.30;1.00;;;;;;4950678;28;20159;-65
2023/07/28 10:55:15;;;;;;;24.83;22.83;;;25.30;1.00;;;;;;4953403;28;20450;-65
2023/07/28 10:57:43;;;;;;;19.42;17.92;;;25.60;1.00;;;;;;4955101;28;20572;-65
2023/07/28 11:00:11;;;;;;;18.80;17.20;;;25.60;99.90;;;;;;4950996;28;20039;-65
2023/07/28 11:02:44;;;;;;;20.08;18.17;;;25.70;99.90;;;;;;4965460;28;20122;-65
2023/07/28 11:05:19;;;;;;;18.67;16.98;;;25.70;99.90;;;;;;4945736;28;20061;-65
2023/07/28 11:07:45;;;;;;;19.90;18.20;;;25.80;56.40;;;;;;4948678;29;20042;-65
2023/07/28 11:10:17;;;;;;;20.48;18.77;;;25.70;51.50;;;;;;4948834;28;20047;-65
2023/07/28 11:12:44;;;;;;;17.95;16.55;;;25.70;1.00;;;;;;4948565;28;20401;-65
2023/07/28 11:15:13;;;;;;;19.77;18.10;;;25.80;1.00;;;;;;4952206;28;20514;-65
2023/07/28 11:17:40;;;;;;;22.23;20.52;;;25.70;1.00;;;;;;4951910;28;20217;-68
2023/07/28 11:20:30;;;;;;;22.08;20.05;;;25.70;99.90;;;;;;4958798;28;20047;-67
2023/07/28 11:23:01;;;;;;;22.13;20.42;;;25.80;99.90;;;;;;4952914;28;20039;-67
2023/07/28 11:25:29;;;;;;;19.85;18.35;;;25.60;99.90;;;;;;4955615;28;20478;-69
2023/07/28 11:27:55;;;;;;;19.23;17.58;;;25.70;99.90;;;;;;4949702;28;20094;-65
2023/07/28 11:30:22;;;;;;;19.73;18.13;;;25.70;99.90;;;;;;4952983;28;20522;-65
2023/07/28 11:32:49;;;;;;;18.05;16.67;;;25.50;99.90;;;;;;4948637;29;20729;-65
2023/07/28 11:35:16;;;;;;;19.45;17.85;;;25.60;99.90;;;;;;4952791;28;20043;-65
2023/07/28 11:37:43;;;;;;;20.17;18.58;;;25.60;99.90;;;;;;4948728;28;20455;-65
2023/07/28 11:40:11;;;;;;;19.02;17.52;;;25.50;99.90;;;;;;4950011;29;20078;-65
2023/07/28 11:42:47;;;;;;;19.60;18.05;;;25.50;99.90;;;;;;4953188;28;20450;-65
2023/07/28 11:45:15;;;;;;;19.70;18.10;;;25.50;99.90;;;;;;4953996;29;20035;-65
2023/07/28 11:47:52;;;;;;;20.08;18.30;;;25.40;72.30;;;;;;4948832;28;20103;-65
2023/07/28 11:50:29;;;;;;;18.85;17.25;;;25.40;1.00;;;;;;4954466;29;20090;-65
2023/07/28 11:52:56;;;;;;;17.40;15.95;;;25.30;1.00;;;;;;4954285;29;20573;-65
2023/07/28 11:55:23;;;;;;;18.00;16.60;;;25.40;6.40;;;;;;4956029;28;20038;-65
2023/07/28 11:57:49;;;;;;;19.52;17.83;;;25.40;2.70;;;;;;4946646;29;20047;-65
2023/07/28 12:00:18;;;;;;;17.33;16.00;;;25.60;14.20;;;;;;4953669;28;20047;-65
2023/07/28 12:02:45;;;;;;;18.95;17.40;;;25.60;7.60;;;;;;4951017;29;20043;-65
2023/07/28 12:05:15;;;;;;;17.98;16.50;;;25.70;1.00;;;;;;4948260;28;20448;-65
2023/07/28 12:07:47;;;;;;;17.88;16.42;;;25.60;1.00;;;;;;4941628;28;20409;-65
2023/07/28 12:10:13;;;;;;;15.98;14.77;;;25.60;1.00;;;;;;4948032;29;20055;-65
2023/07/28 12:12:41;;;;;;;16.80;15.60;;;25.60;1.00;;;;;;4949047;28;20561;-65
2023/07/28 12:15:22;;;;;;;16.73;15.15;;;25.60;1.00;;;;;;4952988;28;20043;-65
2023/07/28 12:18:10;;;;;;;17.92;16.55;;;25.50;1.00;;;;;;4953124;29;20047;-65
2023/07/28 12:20:46;;;;;;;16.52;15.32;;;25.60;99.90;;;;;;4953372;28;20062;-65
2023/07/28 12:23:12;;;;;;;;;;;26.50;99.90;;;;;;4952397;29;20047;-65
2023/07/28 12:25:38;;;;;;;17.60;16.00;;;25.40;99.90;;;;;;4952971;28;19949;-65
2023/07/28 12:28:04;;;;;;;15.30;14.20;;;25.40;99.90;;;;;;4952114;28;20051;-65